Tuesday, November 25, 2014, 11:54 PM EST

KFYJ, West Point, Middle Peninsula Regional Airport

Location: Shacklefords, VA, United States Lat: 37.521
Local Time: 11:54 PM EST ( 4:54 GMT) Lon: -76.764
Time Zone: US/Eastern Elev: 22 ft

Show me the last for .
Show Decoded

2014-11-25 23:35 METAR KFYJ 260435Z AUTO 00000KT 10SM OVC090 11/06 A3016 RMK AO2 T01060058 =
2014-11-25 23:15 METAR KFYJ 260415Z AUTO 04003KT 10SM BKN070 OVC090 11/05 A3015 RMK AO2 T01110045
                 =
2014-11-25 22:55 METAR KFYJ 260355Z AUTO 00000KT 10SM BKN090 OVC110 11/06 A3015 RMK AO2 T01050057
                 =
2014-11-25 22:35 METAR KFYJ 260335Z AUTO 08004KT 10SM BKN090 OVC110 11/05 A3015 RMK AO2 T01060053
                 =
2014-11-25 22:15 METAR KFYJ 260315Z AUTO 00000KT 10SM SCT050 OVC090 11/06 A3017 RMK AO2 T01050060
                 =
2014-11-25 21:55 METAR KFYJ 260255Z AUTO 00000KT 10SM BKN050 OVC100 10/07 A3018 RMK AO2 T01030067
                 =
2014-11-25 21:35 METAR KFYJ 260235Z AUTO 00000KT 10SM SCT050 OVC100 11/06 A3017 RMK AO2 T01050061
                 =
2014-11-25 21:15 METAR KFYJ 260215Z AUTO 00000KT 10SM OVC110 11/06 A3016 RMK AO2 T01070055 =
2014-11-25 20:55 METAR KFYJ 260155Z AUTO 00000KT 10SM BKN120 11/05 A3014 RMK AO2 T01100049 =
2014-11-25 20:35 METAR KFYJ 260135Z AUTO 00000KT 10SM CLR 11/05 A3012 RMK AO2 T01100047 =
2014-11-25 20:15 METAR KFYJ 260115Z AUTO 00000KT 10SM CLR 11/06 A3013 RMK AO2 T01080058 =
2014-11-25 19:55 METAR KFYJ 260055Z AUTO 00000KT 10SM CLR 12/05 A3012 RMK AO2 T01150045 =
2014-11-25 19:35 METAR KFYJ 260035Z AUTO 00000KT 10SM CLR 11/06 A3012 RMK AO2 T01110057 =
2014-11-25 19:15 METAR KFYJ 260015Z AUTO 00000KT 10SM CLR 11/06 A3012 RMK AO2 T01120057 =
2014-11-25 18:55 METAR KFYJ 252355Z AUTO 00000KT 10SM CLR 12/05 A3012 RMK AO2 T01180050 10155
                 20115 =
2014-11-25 18:35 METAR KFYJ 252335Z AUTO 00000KT 10SM CLR 12/05 A3012 RMK AO2 T01180051 =
2014-11-25 18:15 METAR KFYJ 252315Z AUTO 00000KT 10SM CLR 12/06 A3012 RMK AO2 T01200055 =
2014-11-25 17:55 METAR KFYJ 252255Z AUTO 10005KT 10SM CLR 12/06 A3011 RMK AO2 T01190057 =
2014-11-25 17:35 METAR KFYJ 252235Z AUTO 07004KT 10SM CLR 13/05 A3010 RMK AO2 T01270050 =
2014-11-25 17:15 METAR KFYJ 252215Z AUTO 09004KT 10SM CLR 12/07 A3010 RMK AO2 T01210065 =
2014-11-25 16:55 METAR KFYJ 252155Z AUTO 00000KT 10SM CLR 13/06 A3009 RMK AO2 T01280057 =
2014-11-25 16:35 METAR KFYJ 252135Z AUTO 00000KT 10SM CLR 14/05 A3008 RMK AO2 T01380052 =
2014-11-25 16:15 METAR KFYJ 252115Z AUTO 00000KT 10SM CLR 14/04 A3008 RMK AO2 T01410041 =
2014-11-25 15:55 METAR KFYJ 252055Z AUTO 00000KT 10SM SCT050 15/04 A3007 RMK AO2 T01450039 =
2014-11-25 15:35 METAR KFYJ 252035Z AUTO 00000KT 10SM BKN050 15/04 A3008 RMK AO2 T01470040 =
2014-11-25 15:15 METAR KFYJ 252015Z AUTO 00000KT 10SM BKN050 15/03 A3006 RMK AO2 T01480034 =
2014-11-25 14:55 METAR KFYJ 251955Z AUTO 00000KT 10SM SCT030 BKN050 15/03 A3006 RMK AO2 T01500034
                 =
2014-11-25 14:35 METAR KFYJ 251935Z AUTO 34003KT 10SM SCT033 SCT048 SCT120 15/04 A3006 RMK AO2
                 T01510035 =
2014-11-25 14:15 METAR KFYJ 251915Z AUTO 32003KT 10SM BKN025 BKN120 15/03 A3006 RMK AO2 T01520031
                 =
2014-11-25 13:55 METAR KFYJ 251855Z AUTO 36004KT 10SM OVC023 15/03 A3003 RMK AO2 T01530034 =
2014-11-25 13:35 METAR KFYJ 251835Z AUTO 01004KT 10SM BKN021 16/04 A3004 RMK AO2 T01550037 =
2014-11-25 13:15 METAR KFYJ 251815Z AUTO 35004KT 10SM SCT019 SCT110 15/04 A3004 RMK AO2 T01530037
                 =
2014-11-25 12:55 METAR KFYJ 251755Z AUTO 34004KT 10SM SCT045 BKN110 16/04 A3005 RMK AO2 T01550044
                 10185 20155 =
2014-11-25 12:15 METAR KFYJ 251715Z AUTO 34005KT 10SM OVC045 16/05 A3007 RMK AO2 T01600048 =
2014-11-25 11:55 METAR KFYJ 251655Z AUTO 36003KT 10SM SCT021 OVC043 16/05 A3007 RMK AO2 T01570046
                 =
2014-11-25 11:35 METAR KFYJ 251635Z AUTO 36005KT 10SM BKN021 OVC043 16/05 A3007 RMK AO2 T01600050
                 =
2014-11-25 11:15 METAR KFYJ 251615Z AUTO 36007KT 10SM SCT021 BKN045 BKN060 17/05 A3007 RMK AO2
                 T01650052 =
2014-11-25 10:55 METAR KFYJ 251555Z AUTO 01004KT 10SM BKN043 BKN060 17/07 A3007 RMK AO2 T01670067
                 =
2014-11-25 10:15 METAR KFYJ 251515Z AUTO 01005KT 10SM BKN014 BKN025 OVC043 17/10 A3005 RMK AO2
                 T01700099 =
2014-11-25 09:55 METAR KFYJ 251455Z AUTO 34004KT 10SM SCT012 OVC041 19/15 A3004 RMK AO2 T01850150
                 =
2014-11-25 09:35 METAR KFYJ 251435Z AUTO 00000KT 10SM BKN039 18/15 A3003 RMK AO2 T01810149 =
2014-11-25 08:35 METAR KFYJ 251335Z AUTO 22003KT 10SM SCT039 18/14 A3001 RMK AO2 T01760142 =
2014-11-25 08:15 METAR KFYJ 251315Z AUTO 00000KT 10SM SCT039 BKN065 18/15 A2999 RMK AO2 T01770145
                 =
2014-11-25 07:55 METAR KFYJ 251255Z AUTO 20003KT 10SM BKN065 18/15 A2999 RMK AO2 T01760145 =
2014-11-25 07:35 METAR KFYJ 251235Z AUTO 19004KT 10SM SCT065 17/15 A2998 RMK AO2 T01740146 =
2014-11-25 07:15 METAR KFYJ 251215Z AUTO 19003KT 10SM CLR 17/15 A2997 RMK AO2 T01710145 =
2014-11-25 06:55 METAR KFYJ 251155Z AUTO 00000KT 10SM CLR 17/15 A2996 RMK AO2 T01730148 10191
                 20172 =
2014-11-25 06:35 METAR KFYJ 251135Z AUTO 00000KT 10SM CLR 18/15 A2995 RMK AO2 T01750148 =
2014-11-25 06:15 METAR KFYJ 251115Z AUTO 17003KT 10SM CLR 18/15 A2994 RMK AO2 T01750146 =
2014-11-25 05:55 METAR KFYJ 251055Z AUTO 00000KT 10SM CLR 18/15 A2993 RMK AO2 T01800147 =
2014-11-25 05:15 METAR KFYJ 251015Z AUTO 22005KT 10SM CLR 18/15 A2994 RMK AO2 T01820148 =
2014-11-25 04:55 METAR KFYJ 250955Z AUTO 22004KT 10SM CLR 18/15 A2993 RMK AO2 T01820148 =
2014-11-25 04:35 METAR KFYJ 250935Z AUTO 21005KT 10SM BKN110 19/15 A2993 RMK AO2 T01850148 =
2014-11-25 04:15 METAR KFYJ 250915Z AUTO 21006KT 10SM OVC120 19/15 A2993 RMK AO2 T01870150 =
2014-11-25 03:55 METAR KFYJ 250855Z AUTO 19007KT 10SM SCT110 19/15 A2993 RMK AO2 T01900148 =
2014-11-25 03:35 METAR KFYJ 250835Z AUTO 21009KT 10SM SCT026 SCT031 SCT120 19/15 A2992 RMK AO2
                 T01880147 =
2014-11-25 03:15 METAR KFYJ 250815Z AUTO 22006KT 10SM SCT120 19/15 A2992 RMK AO2 T01890148 =
2014-11-25 02:55 METAR KFYJ 250755Z AUTO 21004KT 10SM SCT022 SCT110 19/15 A2990 RMK AO2 T01900148
                 =
2014-11-25 02:35 METAR KFYJ 250735Z AUTO 21005KT 10SM CLR 19/15 A2990 RMK AO2 T01900150 =
2014-11-25 02:15 METAR KFYJ 250715Z AUTO 20004KT 10SM CLR 19/15 A2989 RMK AO2 T01900150 =
2014-11-25 01:55 METAR KFYJ 250655Z AUTO 19005KT 10SM CLR 19/15 A2989 RMK AO2 T01910152 =
2014-11-25 01:35 METAR KFYJ 250635Z AUTO 20007KT 10SM CLR 19/15 A2988 RMK AO2 T01900154 =
2014-11-25 01:15 METAR KFYJ 250615Z AUTO 19005KT 10SM CLR 19/16 A2988 RMK AO2 T01880155 =
2014-11-25 00:55 METAR KFYJ 250555Z AUTO 19007KT 10SM CLR 19/15 A2988 RMK AO2 T01890153 10216
                 20189 402410175 =
2014-11-25 00:35 METAR KFYJ 250535Z AUTO 17007KT 10SM SCT100 SCT120 19/15 A2987 RMK AO2 T01920153
                 =
2014-11-25 00:15 METAR KFYJ 250515Z AUTO 18005KT 10SM SCT021 SCT060 BKN120 20/15 A2985 RMK AO2
                 T01980154 =
2014-11-24 23:55 METAR KFYJ 250455Z AUTO 18005KT 10SM SCT110 20/15 A2984 RMK AO2 T02030148 =

Support USWX by starting your Amazon purchase here.